Time;durP1;ratioP1;P1;durP2;ratioP2;P2;SDS_P1;SDS_P2;PMS_P1;PMS_P2;Temp;Humidity;BMP_temperature;BMP_pressure;BME280_temperature;BME280_humidity;BME280_pressure;Samples;Min_cycle;Max_cycle;Signal;HPM_P1;HPM_P2
2023/06/23 00:00:28;;;;;;;17.85;14.50;;;17.50;99.90;;;;;;5073820;28;20070;-64
2023/06/23 00:02:54;;;;;;;19.88;15.45;;;17.50;99.90;;;;;;5073826;28;20068;-64
2023/06/23 00:05:20;;;;;;;19.08;14.80;;;17.50;99.90;;;;;;5073768;28;20108;-64
2023/06/23 00:07:46;;;;;;;19.58;15.82;;;17.50;99.90;;;;;;5055571;28;20056;-64
2023/06/23 00:10:13;;;;;;;18.98;15.98;;;17.50;99.90;;;;;;5038887;28;20048;-64
2023/06/23 00:12:42;;;;;;;23.38;18.27;;;17.50;99.90;;;;;;5073644;28;20040;-64
2023/06/23 00:15:15;;;;;;;19.55;15.50;;;17.50;99.90;;;;;;5055378;28;20047;-65
2023/06/23 00:17:45;;;;;;;17.35;14.05;;;17.50;99.90;;;;;;5055427;28;20090;-65
2023/06/23 00:20:14;;;;;;;21.95;15.40;;;17.50;99.90;;;;;;5055447;28;20059;-64
2023/06/23 00:22:40;;;;;;;18.08;14.85;;;17.50;99.90;;;;;;5073482;28;20040;-64
2023/06/23 00:25:11;;;;;;;21.08;16.02;;;17.50;99.90;;;;;;5073235;28;20040;-65
2023/06/23 00:27:40;;;;;;;20.13;15.80;;;17.50;99.90;;;;;;5073439;28;20514;-64
2023/06/23 00:30:06;;;;;;;17.98;13.90;;;17.50;99.90;;;;;;5073358;28;20052;-64
2023/06/23 00:32:32;;;;;;;20.92;16.30;;;17.50;99.90;;;;;;5055123;28;20045;-64
2023/06/23 00:34:59;;;;;;;21.42;15.23;;;17.50;99.90;;;;;;5073109;28;20059;-65
2023/06/23 00:37:25;;;;;;;20.02;15.73;;;17.50;99.90;;;;;;5055632;28;20071;-67
2023/06/23 00:39:51;;;;;;;20.50;15.48;;;17.50;99.90;;;;;;5055160;28;20045;-64
2023/06/23 00:42:17;;;;;;;20.05;14.38;;;17.50;99.90;;;;;;5073285;28;20381;-64
2023/06/23 00:44:43;;;;;;;18.55;14.65;;;17.50;99.90;;;;;;5072983;28;20049;-64
2023/06/23 00:47:09;;;;;;;18.35;14.63;;;17.40;99.90;;;;;;5072876;28;20048;-64
2023/06/23 00:49:35;;;;;;;20.70;15.73;;;17.40;99.90;;;;;;5072938;28;20094;-65
2023/06/23 00:52:07;;;;;;;20.90;16.52;;;17.40;99.90;;;;;;5072911;28;20056;-64
2023/06/23 00:54:35;;;;;;;20.33;15.23;;;17.40;99.90;;;;;;5072523;28;20093;-65
2023/06/23 00:57:04;;;;;;;19.92;15.52;;;17.40;99.90;;;;;;5073178;28;20040;-64
2023/06/23 00:59:30;;;;;;;18.65;15.27;;;17.40;99.90;;;;;;5072827;28;20040;-64
2023/06/23 01:02:01;;;;;;;19.85;14.93;;;17.40;99.90;;;;;;5054841;28;20177;-64
2023/06/23 01:04:29;;;;;;;20.23;15.60;;;17.40;99.90;;;;;;5072786;28;20041;-64
2023/06/23 01:07:04;;;;;;;18.15;13.63;;;17.40;99.90;;;;;;5054839;28;20043;-64
2023/06/23 01:09:39;;;;;;;18.00;13.90;;;17.40;99.90;;;;;;5072615;28;20055;-64
2023/06/23 01:12:16;;;;;;;16.92;13.23;;;17.40;99.90;;;;;;5072779;28;20040;-65
2023/06/23 01:15:33;;;;;;;19.40;14.20;;;17.40;99.90;;;;;;5072759;28;20055;-64
2023/06/23 01:18:37;;;;;;;19.13;14.57;;;17.40;99.90;;;;;;5031521;28;20055;-65
2023/06/23 01:21:07;;;;;;;17.25;13.48;;;17.40;99.90;;;;;;5026072;28;20428;-65
2023/06/23 01:24:03;;;;;;;17.70;14.10;;;17.40;99.90;;;;;;5054999;28;20033;-65
2023/06/23 01:26:44;;;;;;;19.33;14.65;;;17.40;99.90;;;;;;5072612;28;20115;-64
2023/06/23 01:29:11;;;;;;;19.15;13.90;;;17.40;99.90;;;;;;5072417;28;20045;-65
2023/06/23 01:31:41;;;;;;;21.98;15.48;;;17.40;99.90;;;;;;5072479;28;20056;-64
2023/06/23 01:34:09;;;;;;;21.00;15.93;;;17.40;99.90;;;;;;5072563;28;20102;-65
2023/06/23 01:36:40;;;;;;;19.17;14.15;;;17.40;99.90;;;;;;5072542;28;20032;-65
2023/06/23 01:39:11;;;;;;;21.10;15.20;;;17.40;99.90;;;;;;5072468;28;20119;-65
2023/06/23 01:41:59;;;;;;;19.25;15.40;;;17.40;99.90;;;;;;5072456;28;20036;-64
2023/06/23 01:44:29;;;;;;;20.10;15.38;;;17.40;99.90;;;;;;5072201;28;20040;-64
2023/06/23 01:46:59;;;;;;;21.08;13.90;;;17.40;99.90;;;;;;5072697;28;20389;-64
2023/06/23 01:49:30;;;;;;;18.17;13.77;;;17.40;99.90;;;;;;5054332;28;20054;-65
2023/06/23 01:51:57;;;;;;;17.70;13.43;;;17.40;99.90;;;;;;5037783;28;20241;-64
2023/06/23 01:54:24;;;;;;;19.73;14.60;;;17.40;99.90;;;;;;5072268;28;20051;-65
2023/06/23 01:56:52;;;;;;;16.85;12.10;;;17.40;99.90;;;;;;5072178;28;20032;-65
2023/06/23 01:59:20;;;;;;;15.95;11.65;;;17.30;99.90;;;;;;5072519;28;20040;-65
2023/06/23 02:01:47;;;;;;;14.35;10.32;;;17.40;99.90;;;;;;5072181;28;20048;-65
2023/06/23 02:04:15;;;;;;;18.48;12.13;;;17.40;99.90;;;;;;5072224;28;20083;-65
2023/06/23 02:07:36;;;;;;;16.63;12.15;;;17.40;99.90;;;;;;5075672;28;20041;-64
2023/06/23 02:10:05;;;;;;;14.95;11.35;;;17.30;99.90;;;;;;5038210;28;20131;-65
2023/06/23 02:12:37;;;;;;;13.50;9.75;;;17.40;99.90;;;;;;5038049;28;20045;-65
2023/06/23 02:15:06;;;;;;;14.82;9.98;;;17.40;99.90;;;;;;5038043;28;20045;-65
2023/06/23 02:17:33;;;;;;;13.25;9.75;;;17.40;99.90;;;;;;5038002;28;20497;-65
2023/06/23 02:20:00;;;;;;;13.75;10.05;;;17.40;99.90;;;;;;5055496;28;20041;-65
2023/06/23 02:22:28;;;;;;;14.82;11.10;;;17.40;99.90;;;;;;5037747;28;20037;-65
2023/06/23 02:24:54;;;;;;;15.48;11.30;;;17.40;99.90;;;;;;5037914;28;20033;-65
2023/06/23 02:27:21;;;;;;;15.90;11.40;;;17.40;99.90;;;;;;5055336;28;20041;-66
2023/06/23 02:29:49;;;;;;;15.13;10.55;;;17.40;99.90;;;;;;5055504;28;20041;-66
2023/06/23 02:32:16;;;;;;;13.85;9.40;;;17.40;99.90;;;;;;5020685;28;20049;-65
2023/06/23 02:34:46;;;;;;;14.10;9.57;;;17.40;99.90;;;;;;5055371;28;20086;-66
2023/06/23 02:37:16;;;;;;;16.25;10.52;;;17.40;99.90;;;;;;5037626;28;20029;-65
2023/06/23 02:39:47;;;;;;;16.50;11.35;;;17.40;99.90;;;;;;5037577;28;20033;-65
2023/06/23 02:42:15;;;;;;;18.23;12.70;;;17.30;99.90;;;;;;5055155;28;20045;-65
2023/06/23 02:44:51;;;;;;;13.93;9.95;;;17.30;99.90;;;;;;5055438;28;20041;-65
2023/06/23 02:47:19;;;;;;;14.35;10.32;;;17.30;99.90;;;;;;5055290;28;20045;-66
2023/06/23 02:49:48;;;;;;;13.90;9.82;;;17.30;99.90;;;;;;5054979;28;20041;-65
2023/06/23 02:52:17;;;;;;;15.27;9.95;;;17.20;99.90;;;;;;5054895;28;20041;-65
2023/06/23 02:54:49;;;;;;;14.63;9.93;;;17.30;99.90;;;;;;5055049;28;20075;-65
2023/06/23 02:57:17;;;;;;;14.65;9.82;;;17.30;99.90;;;;;;5020463;28;20041;-65
2023/06/23 02:59:44;;;;;;;13.98;11.23;;;17.30;99.90;;;;;;5037210;28;20049;-67
2023/06/23 03:02:13;;;;;;;13.20;10.43;;;17.30;99.90;;;;;;5036894;28;20051;-65
2023/06/23 03:04:41;;;;;;;13.77;9.73;;;17.30;99.90;;;;;;5054770;28;20119;-65
2023/06/23 03:07:10;;;;;;;16.25;11.70;;;17.30;99.90;;;;;;5037070;28;20033;-65
2023/06/23 03:09:36;;;;;;;14.60;10.82;;;17.30;99.90;;;;;;5054858;28;20049;-65
2023/06/23 03:12:02;;;;;;;15.73;9.57;;;17.20;99.90;;;;;;5036674;28;20045;-65
2023/06/23 03:14:28;;;;;;;15.32;11.13;;;17.30;99.90;;;;;;5054510;28;20052;-65
2023/06/23 03:17:06;;;;;;;15.63;10.25;;;17.20;99.90;;;;;;5054015;28;20037;-65
2023/06/23 03:19:56;;;;;;;13.02;10.10;;;17.20;99.90;;;;;;5036506;28;20037;-65
2023/06/23 03:22:44;;;;;;;14.80;9.80;;;17.20;99.90;;;;;;5036611;28;20055;-64
2023/06/23 03:25:16;;;;;;;15.88;9.98;;;17.20;99.90;;;;;;5036411;28;20045;-65
2023/06/23 03:27:43;;;;;;;12.05;8.82;;;17.20;99.90;;;;;;5036738;28;20508;-65
2023/06/23 03:30:17;;;;;;;12.75;8.93;;;17.20;99.90;;;;;;5054188;28;20049;-65
2023/06/23 03:32:48;;;;;;;14.85;9.32;;;17.20;99.90;;;;;;5053936;28;20179;-65
2023/06/23 03:35:18;;;;;;;13.30;8.48;;;17.20;99.90;;;;;;5054194;28;20138;-64
2023/06/23 03:37:49;;;;;;;15.15;8.73;;;17.20;99.90;;;;;;5036524;28;20397;-65
2023/06/23 03:40:19;;;;;;;11.85;8.85;;;17.20;99.90;;;;;;5054069;28;20053;-65
2023/06/23 03:42:56;;;;;;;12.63;8.35;;;17.20;99.90;;;;;;5054267;28;20044;-65
2023/06/23 03:45:26;;;;;;;14.65;9.75;;;17.20;99.90;;;;;;5054227;28;20138;-65
2023/06/23 03:47:59;;;;;;;13.00;8.38;;;17.10;99.90;;;;;;5036035;28;20118;-65
2023/06/23 03:50:28;;;;;;;12.35;8.27;;;17.20;99.90;;;;;;5035968;28;20053;-65
2023/06/23 03:52:56;;;;;;;13.10;9.18;;;17.10;99.90;;;;;;5054040;28;20033;-65
2023/06/23 03:55:26;;;;;;;15.15;9.85;;;17.10;99.90;;;;;;5054039;28;20068;-65
2023/06/23 03:57:54;;;;;;;13.43;8.55;;;17.10;99.90;;;;;;5036011;28;20090;-65
2023/06/23 04:00:21;;;;;;;15.15;9.27;;;17.10;99.90;;;;;;5053922;28;20041;-65
2023/06/23 04:02:50;;;;;;;14.55;10.38;;;17.10;99.90;;;;;;5035733;28;20049;-64
2023/06/23 04:05:17;;;;;;;13.85;9.63;;;17.10;99.90;;;;;;5053722;28;20135;-65
2023/06/23 04:07:44;;;;;;;12.95;10.15;;;17.10;99.90;;;;;;5035745;28;20045;-65
2023/06/23 04:10:12;;;;;;;12.13;9.48;;;17.10;99.90;;;;;;5019299;28;20041;-65
2023/06/23 04:12:38;;;;;;;13.68;9.48;;;17.10;99.90;;;;;;5053690;28;20041;-65
2023/06/23 04:15:08;;;;;;;13.63;9.05;;;17.10;99.90;;;;;;5053726;28;20485;-65
2023/06/23 04:17:37;;;;;;;12.98;8.75;;;17.10;99.90;;;;;;5053457;28;20556;-65
2023/06/23 04:20:06;;;;;;;14.52;10.00;;;17.10;99.90;;;;;;5035483;28;20049;-65
2023/06/23 04:22:34;;;;;;;12.13;8.98;;;17.20;99.90;;;;;;5035480;28;20101;-65
2023/06/23 04:25:02;;;;;;;15.50;9.68;;;17.10;99.90;;;;;;5035384;28;20052;-64
2023/06/23 04:27:31;;;;;;;14.18;8.98;;;17.10;99.90;;;;;;5052796;28;20047;-65
2023/06/23 04:29:59;;;;;;;14.05;9.60;;;17.20;99.90;;;;;;5053331;28;20179;-65
2023/06/23 04:32:25;;;;;;;15.05;10.68;;;17.20;99.90;;;;;;5052991;28;20182;-65
2023/06/23 04:34:51;;;;;;;14.80;9.90;;;17.20;99.90;;;;;;5053435;28;20032;-65
2023/06/23 04:37:23;;;;;;;13.50;9.68;;;17.20;99.90;;;;;;5052989;28;20134;-65
2023/06/23 04:39:59;;;;;;;13.40;9.25;;;17.20;99.90;;;;;;5019084;28;20133;-65
2023/06/23 04:42:36;;;;;;;13.68;9.93;;;17.20;99.90;;;;;;5035390;28;20485;-65
2023/06/23 04:45:04;;;;;;;12.63;10.38;;;17.30;99.90;;;;;;5035392;28;20493;-65
2023/06/23 04:47:34;;;;;;;13.35;9.48;;;17.30;99.90;;;;;;5035147;28;20044;-65
2023/06/23 04:50:05;;;;;;;14.45;10.85;;;17.40;99.90;;;;;;5052822;28;20045;-65
2023/06/23 04:52:34;;;;;;;13.82;9.30;;;17.40;99.90;;;;;;5035061;28;20127;-65
2023/06/23 04:55:03;;;;;;;13.50;10.48;;;17.40;99.90;;;;;;5035000;28;20041;-65
2023/06/23 04:57:33;;;;;;;15.68;10.40;;;17.50;99.90;;;;;;5053139;28;20041;-65
2023/06/23 05:00:02;;;;;;;13.50;9.75;;;17.50;99.90;;;;;;5034980;28;20120;-64
2023/06/23 05:02:31;;;;;;;15.00;9.65;;;17.60;99.90;;;;;;5034931;28;20123;-65
2023/06/23 05:04:59;;;;;;;15.63;10.10;;;17.60;99.90;;;;;;5034966;28;20127;-65
2023/06/23 05:07:27;;;;;;;11.93;8.48;;;17.50;99.90;;;;;;5035139;28;20378;-65
2023/06/23 05:09:54;;;;;;;13.63;10.18;;;17.60;99.90;;;;;;5052822;28;20041;-65
2023/06/23 05:12:23;;;;;;;12.60;8.35;;;17.60;99.90;;;;;;5052993;28;20033;-64
2023/06/23 05:14:51;;;;;;;13.60;9.27;;;17.60;99.90;;;;;;5052979;28;20037;-65
2023/06/23 05:17:18;;;;;;;12.30;9.32;;;17.60;99.90;;;;;;5034874;28;20045;-65
2023/06/23 05:19:46;;;;;;;13.35;9.60;;;17.70;99.90;;;;;;5035172;28;20548;-64
2023/06/23 05:22:22;;;;;;;13.23;9.05;;;17.70;99.90;;;;;;5052655;28;20037;-65
2023/06/23 05:24:54;;;;;;;15.23;10.35;;;17.70;99.90;;;;;;5052595;28;20041;-65
2023/06/23 05:27:24;;;;;;;13.75;9.65;;;17.80;99.90;;;;;;5052862;28;20040;-65
2023/06/23 05:29:54;;;;;;;15.63;9.60;;;17.80;99.90;;;;;;5052514;28;20056;-65
2023/06/23 05:32:21;;;;;;;19.33;9.70;;;17.80;99.90;;;;;;5052257;28;20187;-66
2023/06/23 05:34:50;;;;;;;13.50;9.73;;;17.80;99.90;;;;;;5052487;28;20170;-65
2023/06/23 05:37:20;;;;;;;11.88;8.77;;;17.80;99.90;;;;;;5052783;28;20142;-65
2023/06/23 05:39:51;;;;;;;15.45;9.85;;;17.80;99.90;;;;;;5054460;28;20055;-65
2023/06/23 05:42:19;;;;;;;13.50;10.17;;;17.90;99.90;;;;;;5056285;28;20562;-65
2023/06/23 05:44:45;;;;;;;14.82;10.32;;;17.90;99.90;;;;;;5056539;28;20033;-65
2023/06/23 05:47:17;;;;;;;13.57;10.25;;;17.90;99.90;;;;;;5038300;28;20045;-65
2023/06/23 05:49:45;;;;;;;16.98;10.80;;;17.90;99.90;;;;;;5038187;28;20045;-65
2023/06/23 05:52:17;;;;;;;13.02;9.20;;;17.90;99.90;;;;;;5038499;28;20393;-65
2023/06/23 05:54:47;;;;;;;13.30;10.18;;;17.90;99.90;;;;;;5038409;28;20489;-65
2023/06/23 05:57:27;;;;;;;13.43;9.85;;;17.90;99.90;;;;;;5056272;28;20041;-65
2023/06/23 06:00:14;;;;;;;14.68;10.05;;;18.00;99.90;;;;;;5056229;28;20068;-65
2023/06/23 06:02:44;;;;;;;17.50;11.40;;;18.00;99.90;;;;;;5055675;28;20122;-65
2023/06/23 06:05:16;;;;;;;13.13;9.85;;;18.00;99.90;;;;;;5038601;28;20102;-65
2023/06/23 06:07:42;;;;;;;15.02;10.60;;;18.00;99.90;;;;;;5056176;28;20045;-65
2023/06/23 06:10:09;;;;;;;14.68;9.88;;;18.10;99.90;;;;;;5055944;28;20103;-65
2023/06/23 06:12:38;;;;;;;13.18;10.07;;;18.10;99.90;;;;;;5055913;28;20100;-65
2023/06/23 06:15:06;;;;;;;14.27;10.07;;;18.10;99.90;;;;;;5055677;28;20107;-65
2023/06/23 06:17:33;;;;;;;14.55;9.93;;;18.10;99.90;;;;;;5055701;28;20033;-65
2023/06/23 06:20:01;;;;;;;14.07;10.15;;;18.20;99.90;;;;;;5021628;28;20049;-65
2023/06/23 06:22:31;;;;;;;14.10;10.25;;;18.30;99.90;;;;;;5038024;28;20052;-65
2023/06/23 06:24:57;;;;;;;16.00;10.48;;;18.30;99.90;;;;;;5037677;28;20424;-65
2023/06/23 06:27:26;;;;;;;15.55;10.15;;;18.40;99.90;;;;;;5055486;28;20075;-65
2023/06/23 06:29:55;;;;;;;15.40;10.23;;;18.40;99.90;;;;;;5037657;28;20114;-65
2023/06/23 06:32:22;;;;;;;12.88;9.90;;;18.50;99.90;;;;;;5055158;28;20053;-65
2023/06/23 06:34:50;;;;;;;13.65;10.10;;;18.60;99.90;;;;;;5055671;28;20041;-65
2023/06/23 06:37:18;;;;;;;12.55;9.20;;;18.70;99.90;;;;;;5055259;28;20106;-65
2023/06/23 06:39:45;;;;;;;13.82;9.52;;;18.80;99.90;;;;;;5055424;28;20037;-65
2023/06/23 06:42:11;;;;;;;13.07;9.25;;;18.80;99.90;;;;;;5037580;28;20453;-65
2023/06/23 06:44:38;;;;;;;13.73;9.43;;;19.00;99.90;;;;;;5037170;28;20075;-65
2023/06/23 06:47:06;;;;;;;13.93;9.27;;;19.20;99.90;;;;;;5037205;28;20053;-65
2023/06/23 06:49:33;;;;;;;11.82;8.15;;;19.50;99.90;;;;;;5055055;28;20040;-65
2023/06/23 06:52:00;;;;;;;10.73;8.30;;;19.70;99.90;;;;;;5036207;28;20048;-65
2023/06/23 06:54:26;;;;;;;12.60;8.68;;;19.90;99.90;;;;;;5054868;28;20044;-65
2023/06/23 06:56:54;;;;;;;11.30;7.88;;;20.00;99.90;;;;;;5055159;28;20033;-65
2023/06/23 06:59:20;;;;;;;13.85;8.88;;;20.10;99.90;;;;;;5020537;28;20044;-65
2023/06/23 07:01:47;;;;;;;12.00;8.00;;;20.40;99.90;;;;;;5055085;28;20447;-65
2023/06/23 07:04:13;;;;;;;12.65;8.38;;;20.60;99.90;;;;;;5055092;28;20033;-65
2023/06/23 07:06:40;;;;;;;11.77;7.60;;;21.20;99.90;;;;;;5036728;28;20040;-65
2023/06/23 07:09:06;;;;;;;10.88;7.20;;;21.60;99.90;;;;;;5054888;28;20564;-65
2023/06/23 07:11:32;;;;;;;9.32;7.00;;;22.10;99.90;;;;;;5054871;28;20045;-65
2023/06/23 07:14:03;;;;;;;11.85;7.53;;;22.20;99.90;;;;;;5054777;28;20496;-65
2023/06/23 07:16:33;;;;;;;10.93;6.63;;;22.50;99.90;;;;;;5054554;28;20044;-65
2023/06/23 07:18:59;;;;;;;11.00;6.60;;;23.20;99.90;;;;;;5036506;28;20040;-65
2023/06/23 07:21:24;;;;;;;8.50;5.72;;;23.20;99.90;;;;;;5036809;28;20041;-65
2023/06/23 07:23:50;;;;;;;12.00;6.68;;;23.80;99.90;;;;;;5036765;28;20120;-65
2023/06/23 07:26:16;;;;;;;9.98;6.20;;;24.30;99.90;;;;;;5054339;28;20040;-65
2023/06/23 07:28:41;;;;;;;11.73;5.90;;;24.30;99.90;;;;;;5036419;28;20037;-65
2023/06/23 07:31:07;;;;;;;10.63;6.10;;;24.70;99.90;;;;;;5054030;28;20048;-65
2023/06/23 07:33:33;;;;;;;9.88;6.13;;;24.80;99.90;;;;;;5036668;28;20106;-65
2023/06/23 07:35:59;;;;;;;11.07;6.10;;;24.80;99.90;;;;;;5054077;28;20033;-65
2023/06/23 07:38:24;;;;;;;9.88;5.40;;;25.10;99.90;;;;;;5019877;28;20044;-65
2023/06/23 07:40:50;;;;;;;10.00;5.45;;;25.40;99.90;;;;;;5054058;28;20504;-64
2023/06/23 07:43:16;;;;;;;11.52;5.55;;;25.20;99.90;;;;;;5053981;28;20102;-65
2023/06/23 07:45:42;;;;;;;11.25;5.30;;;25.20;99.90;;;;;;5054083;28;20048;-64
2023/06/23 07:48:07;;;;;;;8.95;5.22;;;25.10;99.90;;;;;;5054224;28;20041;-64
2023/06/23 07:50:33;;;;;;;9.35;5.20;;;25.00;99.90;;;;;;5036022;28;20059;-64
2023/06/23 07:52:59;;;;;;;8.95;5.22;;;25.40;99.90;;;;;;5053713;28;20091;-64
2023/06/23 07:55:25;;;;;;;10.05;5.00;;;25.50;99.90;;;;;;5036284;28;20112;-64
2023/06/23 07:57:51;;;;;;;9.88;5.28;;;25.50;99.90;;;;;;5054083;28;20041;-64
2023/06/23 08:00:18;;;;;;;9.32;5.15;;;25.50;99.90;;;;;;5053592;28;20048;-64
2023/06/23 08:02:43;;;;;;;8.23;4.50;;;25.40;99.90;;;;;;5053576;28;20055;-65
2023/06/23 08:05:10;;;;;;;7.65;4.63;;;25.60;99.90;;;;;;5053569;28;20041;-65
2023/06/23 08:07:36;;;;;;;10.55;4.57;;;25.70;99.90;;;;;;5053628;28;20044;-66
2023/06/23 08:10:02;;;;;;;8.07;4.55;;;25.90;99.90;;;;;;5053761;28;20094;-65
2023/06/23 08:12:27;;;;;;;8.55;4.50;;;25.70;99.90;;;;;;5053342;28;20103;-65
2023/06/23 08:14:53;;;;;;;7.97;4.43;;;26.00;99.90;;;;;;5019398;28;20036;-65
2023/06/23 08:17:19;;;;;;;7.93;4.35;;;26.00;99.90;;;;;;5053385;28;20037;-66
2023/06/23 08:19:45;;;;;;;9.05;4.47;;;26.10;99.90;;;;;;5053551;28;20037;-65
2023/06/23 08:22:10;;;;;;;8.27;4.28;;;26.40;99.90;;;;;;5053291;28;20477;-65
2023/06/23 08:24:36;;;;;;;9.50;4.47;;;26.50;99.90;;;;;;5053275;28;20170;-66
2023/06/23 08:27:02;;;;;;;9.43;4.78;;;26.50;99.60;;;;;;5053012;28;20037;-64
2023/06/23 08:29:27;;;;;;;7.90;4.70;;;26.10;98.70;;;;;;5053451;28;20037;-64
2023/06/23 08:31:53;;;;;;;8.05;4.50;;;25.90;99.60;;;;;;5052902;28;20138;-64
2023/06/23 08:34:20;;;;;;;8.73;4.40;;;26.10;99.90;;;;;;5035573;28;20136;-64
2023/06/23 08:36:46;;;;;;;8.20;4.40;;;26.40;99.80;;;;;;5035170;28;20135;-63
2023/06/23 08:39:12;;;;;;;8.40;4.50;;;26.50;99.30;;;;;;5053354;28;20129;-63
2023/06/23 08:41:41;;;;;;;7.50;3.90;;;26.60;98.20;;;;;;5053051;28;20037;-64
2023/06/23 08:44:14;;;;;;;8.55;4.50;;;26.80;98.10;;;;;;5053239;28;20397;-63
2023/06/23 08:46:41;;;;;;;8.48;4.40;;;26.70;97.40;;;;;;5052994;28;20045;-64
2023/06/23 08:49:11;;;;;;;7.40;4.15;;;26.60;96.70;;;;;;5053099;28;20037;-63
2023/06/23 08:51:39;;;;;;;6.18;3.75;;;26.60;96.50;;;;;;5052871;28;20056;-64
2023/06/23 08:54:05;;;;;;;7.50;4.00;;;26.60;96.50;;;;;;5053153;28;20079;-63
2023/06/23 08:56:32;;;;;;;9.13;4.22;;;26.80;96.60;;;;;;5018688;28;20500;-64
2023/06/23 08:58:58;;;;;;;8.10;3.95;;;26.90;94.20;;;;;;5053024;28;20049;-63
2023/06/23 09:01:24;;;;;;;6.97;3.65;;;26.60;93.50;;;;;;5053177;28;20437;-63
2023/06/23 09:03:50;;;;;;;6.72;3.70;;;26.50;93.00;;;;;;5053083;28;20080;-63
2023/06/23 09:06:16;;;;;;;7.88;3.85;;;26.50;94.10;;;;;;5053107;28;20084;-63
2023/06/23 09:08:42;;;;;;;6.43;3.58;;;26.40;93.70;;;;;;5052953;28;20095;-63
2023/06/23 09:11:08;;;;;;;6.82;3.78;;;26.30;93.80;;;;;;5052618;28;20044;-63
2023/06/23 09:13:40;;;;;;;7.90;3.90;;;26.40;94.00;;;;;;5053157;28;20033;-63
2023/06/23 09:16:09;;;;;;;7.63;3.97;;;26.70;94.60;;;;;;5056788;28;20045;-63
2023/06/23 09:18:40;;;;;;;6.95;3.47;;;27.00;93.90;;;;;;5057044;28;20037;-63
2023/06/23 09:21:06;;;;;;;;;;;27.20;93.60;;;;;;5057390;28;20142;-63
2023/06/23 09:23:33;;;;;;;6.65;3.97;;;27.20;92.40;;;;;;5057254;28;19917;-62
2023/06/23 09:26:02;;;;;;;6.57;3.80;;;27.20;93.00;;;;;;5056949;28;20037;-63
2023/06/23 09:28:30;;;;;;;6.22;3.58;;;27.40;92.40;;;;;;5056743;28;20047;-63
2023/06/23 09:30:57;;;;;;;6.03;3.72;;;27.40;92.70;;;;;;5056331;28;20052;-63
2023/06/23 09:33:25;;;;;;;7.90;3.20;;;27.20;90.80;;;;;;5056821;28;20068;-63
2023/06/23 09:35:55;;;;;;;6.72;3.20;;;27.10;90.70;;;;;;5056380;28;20046;-63
2023/06/23 09:38:26;;;;;;;8.18;3.40;;;27.20;90.30;;;;;;5056665;28;20091;-62
2023/06/23 09:41:08;;;;;;;6.53;3.50;;;27.10;87.90;;;;;;5056617;28;20048;-62
2023/06/23 09:43:42;;;;;;;7.03;3.40;;;26.90;87.70;;;;;;5056548;28;20115;-62
2023/06/23 09:46:09;;;;;;;6.50;3.50;;;26.60;87.30;;;;;;5056511;28;20051;-62
2023/06/23 09:48:36;;;;;;;6.68;3.33;;;26.70;90.10;;;;;;5056489;28;20052;-62
2023/06/23 09:51:05;;;;;;;5.93;3.47;;;27.00;89.90;;;;;;5038722;28;20033;-65
2023/06/23 09:53:39;;;;;;;5.70;3.20;;;27.10;88.10;;;;;;5056387;28;20045;-62
2023/06/23 09:56:07;;;;;;;6.00;3.50;;;27.20;86.70;;;;;;5056323;28;20041;-62
2023/06/23 09:58:38;;;;;;;5.53;3.40;;;27.10;83.70;;;;;;5056080;28;20029;-62
2023/06/23 10:01:07;;;;;;;5.68;3.10;;;27.00;84.40;;;;;;5056321;28;20036;-62
2023/06/23 10:03:51;;;;;;;6.07;2.97;;;27.20;85.40;;;;;;5056193;28;20115;-63
2023/06/23 10:06:37;;;;;;;6.60;3.30;;;27.40;84.10;;;;;;5056138;28;20091;-62
2023/06/23 10:09:07;;;;;;;5.82;3.15;;;27.50;80.50;;;;;;5056129;28;20047;-62
2023/06/23 10:11:38;;;;;;;5.38;3.20;;;27.10;78.90;;;;;;5056013;28;20033;-62
2023/06/23 10:14:11;;;;;;;6.80;3.17;;;27.00;80.50;;;;;;5055708;28;20104;-63
2023/06/23 10:16:43;;;;;;;6.25;3.13;;;27.20;80.30;;;;;;5055759;28;20120;-62
2023/06/23 10:19:10;;;;;;;5.20;2.97;;;27.30;81.00;;;;;;5055868;28;20044;-62
2023/06/23 10:21:36;;;;;;;6.35;3.63;;;27.20;81.40;;;;;;5055491;28;20072;-62
2023/06/23 10:24:17;;;;;;;5.50;3.20;;;27.00;78.80;;;;;;5055775;28;20048;-62
2023/06/23 10:26:45;;;;;;;5.03;3.20;;;27.00;81.30;;;;;;5054584;28;20136;-62
2023/06/23 10:29:17;;;;;;;6.20;3.28;;;27.20;79.30;;;;;;5055338;28;20049;-62
2023/06/23 10:31:44;;;;;;;5.55;2.80;;;27.40;78.90;;;;;;5055387;28;20057;-62
2023/06/23 10:34:15;;;;;;;6.03;3.30;;;27.40;78.00;;;;;;5055626;28;20045;-62
2023/06/23 10:36:43;;;;;;;6.82;3.50;;;27.20;75.80;;;;;;5055603;28;20104;-62
2023/06/23 10:39:10;;;;;;;6.55;3.38;;;27.10;76.20;;;;;;5055500;28;20111;-62
2023/06/23 10:41:40;;;;;;;6.35;3.40;;;26.80;77.90;;;;;;5055516;28;20048;-62
2023/06/23 10:44:07;;;;;;;6.57;3.60;;;26.70;78.50;;;;;;5055164;28;20053;-62
2023/06/23 10:46:35;;;;;;;6.97;3.63;;;26.40;79.60;;;;;;5055071;28;20194;-62
2023/06/23 10:49:04;;;;;;;6.22;3.65;;;26.30;82.30;;;;;;5055246;28;20055;-62
2023/06/23 10:51:31;;;;;;;5.80;3.50;;;26.50;83.60;;;;;;5055181;28;20041;-64
2023/06/23 10:53:59;;;;;;;6.22;3.47;;;26.60;82.60;;;;;;5055321;28;20033;-62
2023/06/23 10:56:34;;;;;;;5.68;3.30;;;26.60;83.00;;;;;;5055197;28;20033;-62
2023/06/23 10:59:16;;;;;;;5.93;3.22;;;26.20;81.50;;;;;;5054838;28;20045;-62
2023/06/23 11:02:00;;;;;;;5.30;3.08;;;26.10;80.60;;;;;;5036927;28;20052;-62
2023/06/23 11:04:30;;;;;;;6.00;3.22;;;26.10;81.60;;;;;;5054807;28;20041;-62
2023/06/23 11:07:09;;;;;;;6.82;3.50;;;26.40;82.70;;;;;;5054751;28;20052;-62
2023/06/23 11:10:01;;;;;;;6.22;3.25;;;26.80;82.70;;;;;;5054924;28;20051;-62
2023/06/23 11:12:28;;;;;;;7.03;3.58;;;27.10;81.20;;;;;;5054868;28;20120;-62
2023/06/23 11:14:59;;;;;;;5.28;2.95;;;27.00;79.20;;;;;;5054887;28;20040;-61
2023/06/23 11:17:24;;;;;;;5.43;3.50;;;27.10;80.30;;;;;;5054856;28;20044;-62
2023/06/23 11:19:53;;;;;;;5.50;3.05;;;27.10;77.10;;;;;;5054497;28;20485;-62
2023/06/23 11:22:23;;;;;;;6.55;3.20;;;27.20;79.70;;;;;;5036559;28;20037;-62
2023/06/23 11:24:53;;;;;;;5.43;3.08;;;27.00;76.40;;;;;;5036556;28;20051;-62
2023/06/23 11:27:19;;;;;;;5.50;2.83;;;26.90;78.10;;;;;;5054514;28;20032;-62
2023/06/23 11:30:17;;;;;;;6.95;3.22;;;27.10;80.20;;;;;;5054465;28;20128;-62
2023/06/23 11:32:43;;;;;;;5.32;3.10;;;27.00;76.60;;;;;;4999725;28;20146;-62
2023/06/23 11:35:11;;;;;;;5.80;3.03;;;27.20;78.40;;;;;;5054515;28;20041;-62
2023/06/23 11:37:38;;;;;;;5.22;3.05;;;27.60;78.40;;;;;;5054139;28;20095;-62
2023/06/23 11:40:08;;;;;;;5.25;3.40;;;27.70;78.50;;;;;;5054113;28;20049;-62
2023/06/23 11:42:34;;;;;;;7.22;3.15;;;27.80;76.60;;;;;;5054336;28;20048;-62
2023/06/23 11:45:00;;;;;;;6.07;3.03;;;27.50;75.40;;;;;;5054287;28;20480;-62
2023/06/23 11:47:27;;;;;;;8.65;3.63;;;27.40;76.90;;;;;;5053908;28;20048;-62
2023/06/23 11:49:54;;;;;;;6.75;3.50;;;27.40;76.50;;;;;;5054134;28;20469;-62
2023/06/23 11:52:21;;;;;;;5.22;3.10;;;27.40;76.30;;;;;;5054153;28;20120;-61
2023/06/23 11:54:48;;;;;;;5.70;3.38;;;27.40;76.20;;;;;;5053852;28;20051;-62
2023/06/23 11:57:19;;;;;;;5.60;3.25;;;27.50;76.30;;;;;;5053604;28;20036;-62
2023/06/23 11:59:45;;;;;;;6.07;2.95;;;27.50;74.60;;;;;;5053709;28;20076;-64
2023/06/23 12:02:11;;;;;;;5.78;3.22;;;27.30;75.70;;;;;;5053937;28;20091;-66
2023/06/23 12:04:39;;;;;;;5.63;3.17;;;27.10;76.10;;;;;;5053962;28;20396;-63
2023/06/23 12:07:05;;;;;;;6.15;3.20;;;27.10;74.70;;;;;;5053580;28;20045;-63
2023/06/23 12:09:32;;;;;;;5.68;2.72;;;27.10;74.20;;;;;;5053736;28;20072;-64
2023/06/23 12:11:59;;;;;;;5.25;2.80;;;27.40;73.80;;;;;;5053583;28;20052;-65
2023/06/23 12:14:33;;;;;;;4.35;2.63;;;27.30;74.50;;;;;;5053773;28;20041;-63
2023/06/23 12:17:07;;;;;;;4.88;2.72;;;27.10;73.50;;;;;;5053418;28;20041;-62
2023/06/23 12:19:34;;;;;;;6.35;3.00;;;26.90;74.20;;;;;;5053658;28;20120;-65
2023/06/23 12:22:01;;;;;;;5.68;2.83;;;26.80;73.80;;;;;;5053265;28;20041;-64
2023/06/23 12:24:30;;;;;;;5.97;2.92;;;26.80;74.60;;;;;;5053383;28;20047;-62
2023/06/23 12:26:57;;;;;;;5.18;2.70;;;26.90;75.50;;;;;;5053502;28;20513;-62
2023/06/23 12:29:23;;;;;;;5.80;2.70;;;27.10;75.40;;;;;;5053394;28;20037;-63
2023/06/23 12:31:56;;;;;;;6.35;2.90;;;27.10;73.50;;;;;;5052984;28;20061;-62
2023/06/23 12:34:28;;;;;;;5.32;2.70;;;27.00;73.00;;;;;;5035417;28;20037;-67
2023/06/23 12:37:04;;;;;;;5.53;2.88;;;27.00;72.60;;;;;;5053329;28;20111;-62
2023/06/23 12:39:31;;;;;;;5.72;3.05;;;26.80;72.60;;;;;;5053115;28;20064;-62
2023/06/23 12:41:58;;;;;;;5.47;2.67;;;26.80;74.20;;;;;;5053323;28;20110;-63
2023/06/23 12:44:29;;;;;;;5.35;2.80;;;26.90;73.30;;;;;;5052944;28;20041;-63
2023/06/23 12:46:57;;;;;;;6.60;3.10;;;26.70;72.20;;;;;;5053295;28;20174;-62
2023/06/23 12:49:31;;;;;;;6.72;2.80;;;26.60;71.90;;;;;;5052337;28;20029;-62